createdAt,value
2023-03-24T00:01:58.064Z,97107.94
2023-03-24T00:04:25.151Z,97113.63
2023-03-24T00:06:52.351Z,97113.00
2023-03-24T00:09:19.034Z,97111.38
2023-03-24T00:11:45.603Z,97116.13
2023-03-24T00:14:12.414Z,97111.06
2023-03-24T00:16:42.449Z,97106.31
2023-03-24T00:19:10.605Z,97098.91
2023-03-24T00:21:37.534Z,97100.25
2023-03-24T00:24:04.990Z,97097.91
2023-03-24T00:26:32.445Z,97093.47
2023-03-24T00:28:59.033Z,97088.03
2023-03-24T00:31:26.101Z,97089.72
2023-03-24T00:33:53.861Z,97092.16
2023-03-24T00:36:23.069Z,97089.03
2023-03-24T00:38:50.220Z,97095.31
2023-03-24T00:41:20.338Z,97090.78
2023-03-24T00:43:48.230Z,97086.06
2023-03-24T00:46:27.334Z,97079.91
2023-03-24T00:49:02.659Z,97082.97
2023-03-24T00:51:30.918Z,97076.94
2023-03-24T00:53:57.898Z,97078.44
2023-03-24T00:56:26.670Z,97071.91
2023-03-24T00:58:54.306Z,97064.53
2023-03-24T01:01:22.209Z,97064.00
2023-03-24T01:03:50.799Z,97062.22
2023-03-24T01:06:18.634Z,97062.44
2023-03-24T01:08:45.812Z,97056.28
2023-03-24T01:11:13.049Z,97056.22
2023-03-24T01:13:41.012Z,97056.91
2023-03-24T01:16:07.878Z,97053.16
2023-03-24T01:18:35.009Z,97055.59
2023-03-24T01:21:01.639Z,97055.28
2023-03-24T01:23:30.665Z,97050.22
2023-03-24T01:25:57.267Z,97049.16
2023-03-24T01:28:25.261Z,97042.16
2023-03-24T01:30:52.885Z,97048.47
2023-03-24T01:33:19.619Z,97052.84
2023-03-24T01:35:46.263Z,97047.81
2023-03-24T01:38:13.757Z,97043.69
2023-03-24T01:40:42.189Z,97041.59
2023-03-24T01:43:17.127Z,97040.41
2023-03-24T01:46:06.233Z,97032.63
2023-03-24T01:48:43.356Z,97035.00
2023-03-24T01:51:12.701Z,97038.25
2023-03-24T01:53:42.748Z,97037.28
2023-03-24T01:56:10.245Z,97042.94
2023-03-24T01:58:43.764Z,97030.50
2023-03-24T02:01:18.191Z,97025.78
2023-03-24T02:04:11.256Z,97027.16
2023-03-24T02:06:41.357Z,97034.09
2023-03-24T02:09:08.539Z,97031.13
2023-03-24T02:11:36.061Z,97033.38
2023-03-24T02:14:05.664Z,97038.59
2023-03-24T02:16:51.028Z,97035.16
2023-03-24T02:19:38.426Z,97029.72
2023-03-24T02:22:06.131Z,97023.66
2023-03-24T02:24:35.793Z,97028.28
2023-03-24T02:27:11.626Z,97027.03
2023-03-24T02:30:02.074Z,97024.50
2023-03-24T02:32:29.339Z,97013.97
2023-03-24T02:35:09.169Z,97017.59
2023-03-24T02:37:35.733Z,97018.91
2023-03-24T02:40:29.102Z,97007.88
2023-03-24T02:43:14.640Z,97002.78
2023-03-24T02:45:49.917Z,97000.00
2023-03-24T02:48:37.654Z,96995.00
2023-03-24T02:51:22.346Z,96994.25
2023-03-24T02:53:48.879Z,96995.94
2023-03-24T02:56:42.810Z,96995.88
2023-03-24T02:59:32.253Z,96988.88
2023-03-24T03:02:07.207Z,96985.66
2023-03-24T03:04:46.131Z,96986.84
2023-03-24T03:07:16.786Z,96987.72
2023-03-24T03:09:50.928Z,96991.66
2023-03-24T03:12:19.512Z,96990.28
2023-03-24T03:14:48.469Z,96981.75
2023-03-24T03:17:30.789Z,96971.72
2023-03-24T03:20:05.056Z,96971.84
2023-03-24T03:22:34.301Z,96972.47
2023-03-24T03:25:02.524Z,96972.91
2023-03-24T03:27:31.314Z,96979.25
2023-03-24T03:30:04.670Z,96972.59
2023-03-24T03:32:34.137Z,96966.81
2023-03-24T03:35:06.859Z,96969.56
2023-03-24T03:37:36.593Z,96973.44
2023-03-24T03:40:09.779Z,96968.22
2023-03-24T03:42:39.472Z,96956.81
2023-03-24T03:45:08.347Z,96961.97
2023-03-24T03:47:35.702Z,96955.97
2023-03-24T03:50:02.809Z,96960.69
2023-03-24T03:52:31.003Z,96948.28
2023-03-24T03:54:58.533Z,96960.91
2023-03-24T03:57:25.483Z,96956.16
2023-03-24T04:00:15.630Z,96954.19
2023-03-24T04:03:02.044Z,96950.97
2023-03-24T04:05:35.117Z,96949.38
2023-03-24T04:08:12.655Z,96947.03
2023-03-24T04:11:14.164Z,96943.38
2023-03-24T04:14:06.840Z,96941.75
2023-03-24T04:17:16.221Z,96932.28
2023-03-24T04:19:55.842Z,96930.78
2023-03-24T04:22:39.947Z,96927.84
2023-03-24T04:25:20.543Z,96936.59
2023-03-24T04:27:49.879Z,96928.47
2023-03-24T04:30:30.441Z,96926.81
2023-03-24T04:33:04.149Z,96924.91
2023-03-24T04:35:36.547Z,96927.53
2023-03-24T04:38:23.154Z,96928.06
2023-03-24T04:40:58.055Z,96924.34
2023-03-24T04:43:28.047Z,96934.03
2023-03-24T04:45:57.995Z,96928.03
2023-03-24T04:48:36.532Z,96925.03
2023-03-24T04:51:09.244Z,96928.63
2023-03-24T04:54:14.189Z,96932.56
2023-03-24T04:56:51.913Z,96934.25
2023-03-24T04:59:23.776Z,96943.75
2023-03-24T05:01:50.725Z,96936.50
2023-03-24T05:04:43.093Z,96928.34
2023-03-24T05:07:19.307Z,96932.41
2023-03-24T05:09:48.804Z,96940.41
2023-03-24T05:12:15.352Z,96934.81
2023-03-24T05:15:16.966Z,96929.75
2023-03-24T05:17:45.984Z,96935.75
2023-03-24T05:20:12.803Z,96932.13
2023-03-24T05:22:42.598Z,96938.41
2023-03-24T05:25:09.513Z,96942.28
2023-03-24T05:27:36.265Z,96941.00
2023-03-24T05:30:15.129Z,96940.81
2023-03-24T05:32:43.453Z,96934.78
2023-03-24T05:35:11.931Z,96942.72
2023-03-24T05:37:38.920Z,96938.72
2023-03-24T05:40:07.045Z,96931.34
2023-03-24T05:42:45.267Z,96934.44
2023-03-24T05:45:13.848Z,96938.38
2023-03-24T05:47:40.985Z,96926.81
2023-03-24T05:50:08.915Z,96940.41
2023-03-24T05:52:36.361Z,96939.81
2023-03-24T05:55:32.039Z,96928.81
2023-03-24T05:58:07.527Z,96923.13
2023-03-24T06:00:48.156Z,96915.09
2023-03-24T06:03:23.468Z,96909.38
2023-03-24T06:06:00.361Z,96910.88
2023-03-24T06:08:28.601Z,96915.03
2023-03-24T06:11:00.419Z,96919.06
2023-03-24T06:13:27.064Z,96920.06
2023-03-24T06:15:54.648Z,96924.91
2023-03-24T06:18:35.275Z,96919.25
2023-03-24T06:21:11.429Z,96918.81
2023-03-24T06:23:40.062Z,96920.69
2023-03-24T06:26:11.494Z,96917.03
2023-03-24T06:28:51.846Z,96926.44
2023-03-24T06:31:21.330Z,96924.28
2023-03-24T06:33:53.301Z,96926.59
2023-03-24T06:36:19.888Z,96926.03
2023-03-24T06:38:46.884Z,96925.94
2023-03-24T06:41:17.674Z,96929.06
2023-03-24T06:43:44.538Z,96923.84
2023-03-24T06:46:11.408Z,96921.69
2023-03-24T06:48:40.979Z,96917.81
2023-03-24T06:51:08.405Z,96927.22
2023-03-24T06:53:34.961Z,96926.66
2023-03-24T06:56:01.853Z,96932.69
2023-03-24T06:58:35.282Z,96923.69
2023-03-24T07:01:07.226Z,96928.00
2023-03-24T07:03:42.961Z,96928.34
2023-03-24T07:06:29.857Z,96928.00
2023-03-24T07:09:02.749Z,96926.94
2023-03-24T07:11:31.643Z,96917.09
2023-03-24T07:13:59.815Z,96910.44
2023-03-24T07:16:28.113Z,96909.00
2023-03-24T07:19:12.981Z,96904.78
2023-03-24T07:21:41.462Z,96907.78
2023-03-24T07:24:08.145Z,96908.78
2023-03-24T07:26:45.581Z,96918.75
2023-03-24T07:29:21.644Z,96909.09
2023-03-24T07:32:01.931Z,96911.34
2023-03-24T07:34:28.800Z,96903.78
2023-03-24T07:36:55.551Z,96894.97
2023-03-24T07:39:22.109Z,96896.06
2023-03-24T07:41:48.575Z,96893.53
2023-03-24T07:44:25.732Z,96892.84
2023-03-24T07:46:53.458Z,96895.84
2023-03-24T07:49:20.893Z,96897.16
2023-03-24T07:52:06.654Z,96889.72
2023-03-24T07:54:38.540Z,96899.34
2023-03-24T07:57:05.082Z,96897.41
2023-03-24T07:59:31.809Z,96891.31
2023-03-24T08:02:05.772Z,96890.09
2023-03-24T08:04:44.829Z,96882.84
2023-03-24T08:07:34.970Z,96882.41
2023-03-24T08:10:01.480Z,96889.72
2023-03-24T08:12:27.911Z,96887.00
2023-03-24T08:14:55.264Z,96875.44
2023-03-24T08:17:21.937Z,96888.94
2023-03-24T08:19:58.882Z,96876.34
2023-03-24T08:22:27.245Z,96884.91
2023-03-24T08:24:53.720Z,96888.31
2023-03-24T08:27:20.482Z,96886.19
2023-03-24T08:29:46.962Z,96873.66
2023-03-24T08:32:13.782Z,96869.75
2023-03-24T08:34:40.305Z,96877.06
2023-03-24T08:37:07.149Z,96868.16
2023-03-24T08:39:35.834Z,96869.41
2023-03-24T08:42:02.464Z,96866.19
2023-03-24T08:44:30.571Z,96860.88
2023-03-24T08:47:00.278Z,96863.25
2023-03-24T08:49:26.721Z,96862.50
2023-03-24T08:51:53.199Z,96871.53
2023-03-24T08:54:21.747Z,96876.59
2023-03-24T08:56:48.253Z,96874.09
2023-03-24T08:59:14.980Z,96872.78
2023-03-24T09:01:41.932Z,96870.19
2023-03-24T09:04:08.452Z,96871.00
2023-03-24T09:06:35.067Z,96873.75
2023-03-24T09:09:01.609Z,96866.22
2023-03-24T09:11:28.118Z,96859.09
2023-03-24T09:13:54.608Z,96854.41
2023-03-24T09:16:21.815Z,96869.56
2023-03-24T09:18:48.332Z,96850.25
2023-03-24T09:21:14.795Z,96845.56
2023-03-24T09:23:41.349Z,96840.19
2023-03-24T09:26:08.111Z,96840.69
2023-03-24T09:28:34.742Z,96845.63
2023-03-24T09:31:06.073Z,96836.94
2023-03-24T09:33:34.715Z,96834.13
2023-03-24T09:36:02.615Z,96836.06
2023-03-24T09:41:00.720Z,96841.09
2023-03-24T09:43:46.129Z,96833.81
2023-03-24T09:46:15.666Z,96835.25
2023-03-24T09:48:58.064Z,96830.72
2023-03-24T09:51:25.966Z,96827.84
2023-03-24T09:53:52.432Z,96819.75
2023-03-24T09:56:20.813Z,96821.91
2023-03-24T09:58:49.898Z,96820.56
2023-03-24T10:01:17.184Z,96817.16
2023-03-24T10:03:44.531Z,96821.50
2023-03-24T10:06:15.390Z,96809.34
2023-03-24T10:08:43.107Z,96806.19
2023-03-24T10:11:27.268Z,96803.75
2023-03-24T10:14:17.095Z,96803.00
2023-03-24T10:17:02.224Z,96798.34
2023-03-24T10:19:48.536Z,96814.00
2023-03-24T10:22:21.820Z,96799.75
2023-03-24T10:24:51.315Z,96803.84
2023-03-24T10:27:44.191Z,96802.56
2023-03-24T10:30:16.783Z,96798.16
2023-03-24T10:32:44.159Z,96794.72
2023-03-24T10:35:23.227Z,96805.97
2023-03-24T10:37:50.516Z,96801.59
2023-03-24T10:40:22.616Z,96803.91
2023-03-24T10:42:49.840Z,96787.78
2023-03-24T10:45:34.972Z,96786.63
2023-03-24T10:48:02.280Z,96788.53
2023-03-24T10:50:30.326Z,96792.25
2023-03-24T10:52:57.626Z,96788.91
2023-03-24T10:55:31.284Z,96777.72
2023-03-24T10:57:59.111Z,96781.34
2023-03-24T11:00:31.498Z,96791.03
2023-03-24T11:03:01.058Z,96786.56
2023-03-24T11:05:30.655Z,96785.34
2023-03-24T11:08:00.649Z,96771.38
2023-03-24T11:10:27.437Z,96769.78
2023-03-24T11:12:53.895Z,96769.69
2023-03-24T11:15:26.202Z,96772.31
2023-03-24T11:18:11.145Z,96760.34
2023-03-24T11:20:46.192Z,96745.00
2023-03-24T11:23:16.908Z,96744.25
2023-03-24T11:25:46.185Z,96748.09
2023-03-24T11:28:16.927Z,96739.09
2023-03-24T11:30:46.715Z,96743.69
2023-03-24T11:33:19.083Z,96747.91
2023-03-24T11:35:50.299Z,96732.22
2023-03-24T11:38:29.856Z,96731.22
2023-03-24T11:41:01.210Z,96726.25
2023-03-24T11:43:28.170Z,96726.31
2023-03-24T11:46:05.940Z,96729.59
2023-03-24T11:48:35.264Z,96727.00
2023-03-24T11:51:03.126Z,96722.00
2023-03-24T11:53:33.920Z,96721.31
2023-03-24T11:56:00.805Z,96720.00
2023-03-24T11:58:28.063Z,96712.09
2023-03-24T12:01:05.099Z,96713.25
2023-03-24T12:03:58.371Z,96708.22
2023-03-24T12:06:24.974Z,96701.41
2023-03-24T12:09:09.821Z,96703.97
2023-03-24T12:11:39.347Z,96703.09
2023-03-24T12:14:06.039Z,96694.50
2023-03-24T12:16:39.954Z,96690.47
2023-03-24T12:19:19.183Z,96691.31
2023-03-24T12:21:45.824Z,96687.94
2023-03-24T12:24:21.440Z,96689.50
2023-03-24T12:26:51.718Z,96690.16
2023-03-24T12:29:18.181Z,96681.94
2023-03-24T12:31:53.901Z,96688.59
2023-03-24T12:34:20.682Z,96685.28
2023-03-24T12:36:52.890Z,96677.38
2023-03-24T12:39:32.065Z,96678.38
2023-03-24T12:42:14.199Z,96676.91
2023-03-24T12:44:40.812Z,96685.03
2023-03-24T12:47:22.697Z,96681.25
2023-03-24T12:50:07.973Z,96677.31
2023-03-24T12:52:43.891Z,96682.28
2023-03-24T12:55:14.704Z,96678.72
2023-03-24T12:57:42.839Z,96679.72
2023-03-24T13:00:16.143Z,96676.28
2023-03-24T13:02:45.896Z,96677.22
2023-03-24T13:05:18.494Z,96685.28
2023-03-24T13:07:47.536Z,96687.94
2023-03-24T13:10:18.123Z,96677.13
2023-03-24T13:12:44.584Z,96659.50
2023-03-24T13:15:14.452Z,96660.09
2023-03-24T13:17:59.618Z,96649.03
2023-03-24T13:20:28.315Z,96627.06
2023-03-24T13:22:55.567Z,96615.34
2023-03-24T13:25:45.132Z,96638.22
2023-03-24T13:28:16.637Z,96640.47
2023-03-24T13:30:44.436Z,96638.31
2023-03-24T13:33:20.196Z,96642.28
2023-03-24T13:36:09.196Z,96638.94
2023-03-24T13:38:37.791Z,96639.66
2023-03-24T13:41:05.499Z,96635.59
2023-03-24T13:43:33.599Z,96635.75
2023-03-24T13:46:01.422Z,96640.91
2023-03-24T13:48:37.624Z,96653.25
2023-03-24T13:51:08.860Z,96657.53
2023-03-24T13:53:38.114Z,96654.16
2023-03-24T13:56:06.117Z,96642.44
2023-03-24T13:59:04.636Z,96640.16
2023-03-24T14:01:33.300Z,96637.19
2023-03-24T14:04:18.706Z,96631.91
2023-03-24T14:06:49.825Z,96622.13
2023-03-24T14:09:21.176Z,96621.09
2023-03-24T14:12:08.659Z,96623.88
2023-03-24T14:14:56.980Z,96613.88
2023-03-24T14:17:23.575Z,96611.78
2023-03-24T14:19:59.144Z,96611.25
2023-03-24T14:22:30.651Z,96614.63
2023-03-24T14:24:59.417Z,96606.59
2023-03-24T14:27:34.986Z,96596.88
2023-03-24T14:30:03.941Z,96598.72
2023-03-24T14:32:30.461Z,96601.44
2023-03-24T14:34:58.199Z,96595.25
2023-03-24T14:37:25.762Z,96593.59
2023-03-24T14:39:52.781Z,96597.25
2023-03-24T14:42:45.741Z,96596.69
2023-03-24T14:45:33.536Z,96590.66
2023-03-24T14:48:01.457Z,96589.16
2023-03-24T14:50:28.814Z,96589.47
2023-03-24T14:52:58.689Z,96584.91
2023-03-24T14:55:26.401Z,96576.78
2023-03-24T14:57:54.372Z,96582.59
2023-03-24T15:00:22.888Z,96585.47
2023-03-24T15:02:53.386Z,96582.66
2023-03-24T15:05:23.143Z,96584.44
2023-03-24T15:08:08.543Z,96576.31
2023-03-24T15:10:40.932Z,96587.94
2023-03-24T15:13:23.669Z,96583.63
2023-03-24T15:15:50.508Z,96588.38
2023-03-24T15:18:18.129Z,96587.19
2023-03-24T15:20:48.587Z,96580.09
2023-03-24T15:23:19.996Z,96581.28
2023-03-24T15:25:49.414Z,96572.63
2023-03-24T15:28:26.708Z,96570.69
2023-03-24T15:30:53.900Z,96564.72
2023-03-24T15:33:21.752Z,96564.91
2023-03-24T15:35:54.276Z,96563.81
2023-03-24T15:38:27.345Z,96566.06
2023-03-24T15:40:57.856Z,96564.25
2023-03-24T15:43:24.563Z,96567.97
2023-03-24T15:46:08.728Z,96570.78
2023-03-24T15:48:38.704Z,96569.44
2023-03-24T15:51:09.745Z,96561.69
2023-03-24T15:53:44.934Z,96558.03
2023-03-24T15:56:14.487Z,96559.06
2023-03-24T15:58:48.852Z,96556.84
2023-03-24T16:01:17.499Z,96548.97
2023-03-24T16:03:44.910Z,96555.72
2023-03-24T16:06:15.947Z,96556.47
2023-03-24T16:08:43.285Z,96564.69
2023-03-24T16:11:11.886Z,96556.72
2023-03-24T16:13:39.347Z,96555.06
2023-03-24T16:16:15.058Z,96556.22
2023-03-24T16:18:43.423Z,96555.88
2023-03-24T16:21:13.042Z,96550.91
2023-03-24T16:23:39.953Z,96556.88
2023-03-24T16:26:09.313Z,96551.56
2023-03-24T16:28:36.238Z,96552.72
2023-03-24T16:31:04.589Z,96550.38
2023-03-24T16:33:31.389Z,96550.97
2023-03-24T16:35:58.238Z,96563.03
2023-03-24T16:38:25.438Z,96561.38
2023-03-24T16:40:53.518Z,96564.16
2023-03-24T16:43:20.389Z,96564.06
2023-03-24T16:45:47.711Z,96561.09
2023-03-24T16:48:14.144Z,96565.50
2023-03-24T16:50:42.281Z,96561.69
2023-03-24T16:53:09.146Z,96557.19
2023-03-24T16:55:36.449Z,96563.22
2023-03-24T16:58:03.366Z,96565.59
2023-03-24T17:00:30.064Z,96563.84
2023-03-24T17:02:59.791Z,96559.91
2023-03-24T17:05:28.422Z,96563.84
2023-03-24T17:07:58.247Z,96558.13
2023-03-24T17:10:25.586Z,96561.94
2023-03-24T17:12:53.975Z,96565.28
2023-03-24T17:15:22.280Z,96566.44
2023-03-24T17:17:48.756Z,96560.72
2023-03-24T17:20:15.869Z,96564.94
2023-03-24T17:22:43.849Z,96565.47
2023-03-24T17:25:11.603Z,96565.78
2023-03-24T17:27:38.638Z,96555.63
2023-03-24T17:30:06.632Z,96557.19
2023-03-24T17:32:33.612Z,96558.66
2023-03-24T17:35:01.366Z,96564.19
2023-03-24T17:37:28.742Z,96571.31
2023-03-24T17:39:58.202Z,96575.16
2023-03-24T17:42:26.391Z,96571.69
2023-03-24T17:44:52.937Z,96593.25
2023-03-24T17:47:19.385Z,96597.81
2023-03-24T17:49:45.927Z,96605.38
2023-03-24T17:52:12.408Z,96607.47
2023-03-24T17:54:38.912Z,96609.63
2023-03-24T17:57:05.507Z,96614.56
2023-03-24T17:59:32.747Z,96612.69
2023-03-24T18:01:59.265Z,96611.84
2023-03-24T18:04:25.854Z,96612.63
2023-03-24T18:06:52.418Z,96621.28
2023-03-24T18:09:18.932Z,96628.59
2023-03-24T18:11:47.718Z,96643.75
2023-03-24T18:14:14.327Z,96656.00
2023-03-24T18:16:40.953Z,96660.50
2023-03-24T18:19:07.563Z,96665.28
2023-03-24T18:21:34.117Z,96675.91
2023-03-24T18:24:00.744Z,96677.69
2023-03-24T18:26:27.925Z,96681.56
2023-03-24T18:28:54.452Z,96687.19
2023-03-24T18:31:21.709Z,96687.03
2023-03-24T18:33:48.794Z,96696.66
2023-03-24T18:36:16.571Z,96697.50
2023-03-24T18:38:43.561Z,96698.19
2023-03-24T18:41:12.732Z,96688.34
2023-03-24T18:43:41.194Z,96691.69
2023-03-24T18:46:09.717Z,96686.22
2023-03-24T18:48:43.758Z,96684.56
2023-03-24T18:51:11.130Z,96690.47
2023-03-24T18:53:37.723Z,96680.47
2023-03-24T18:56:06.005Z,96683.19
2023-03-24T18:58:33.772Z,96686.75
2023-03-24T19:01:04.650Z,96686.13
2023-03-24T19:03:31.210Z,96679.00
2023-03-24T19:06:00.962Z,96691.41
2023-03-24T19:08:27.464Z,96689.72
2023-03-24T19:10:54.513Z,96693.66
2023-03-24T19:13:21.168Z,96693.31
2023-03-24T19:15:48.352Z,96696.50
2023-03-24T19:18:15.454Z,96702.06
2023-03-24T19:20:42.313Z,96700.81
2023-03-24T19:23:08.986Z,96697.44
2023-03-24T19:25:35.543Z,96697.94
2023-03-24T19:28:01.999Z,96686.59
2023-03-24T19:30:29.434Z,96688.50
2023-03-24T19:32:56.772Z,96699.88
2023-03-24T19:35:23.681Z,96696.38
2023-03-24T19:37:50.235Z,96700.16
2023-03-24T19:40:16.725Z,96701.88
2023-03-24T19:42:44.954Z,96704.00
2023-03-24T19:45:12.677Z,96701.06
2023-03-24T19:47:39.212Z,96701.91
2023-03-24T19:50:07.409Z,96706.50
2023-03-24T19:52:34.226Z,96705.47
2023-03-24T19:55:00.894Z,96710.69
2023-03-24T19:57:30.404Z,96711.53
2023-03-24T19:59:57.337Z,96719.47
2023-03-24T20:02:24.741Z,96716.53
2023-03-24T20:04:52.042Z,96717.78
2023-03-24T20:07:18.709Z,96711.91
2023-03-24T20:09:45.359Z,96713.38
2023-03-24T20:12:11.840Z,96719.63
2023-03-24T20:14:38.320Z,96713.16
2023-03-24T20:17:05.243Z,96716.88
2023-03-24T20:19:31.828Z,96718.59
2023-03-24T20:21:58.283Z,96721.97
2023-03-24T20:24:24.761Z,96719.44
2023-03-24T20:26:51.617Z,96728.22
2023-03-24T20:29:18.254Z,96730.50
2023-03-24T20:31:45.149Z,96730.28
2023-03-24T20:34:11.670Z,96740.31
2023-03-24T20:36:41.771Z,96736.38
2023-03-24T20:39:08.223Z,96732.81
2023-03-24T20:41:34.897Z,96731.13
2023-03-24T20:44:01.364Z,96737.16
2023-03-24T20:46:27.832Z,96742.03
2023-03-24T20:48:54.333Z,96743.69
2023-03-24T20:51:21.996Z,96747.00
2023-03-24T20:53:49.855Z,96748.28
2023-03-24T20:56:17.256Z,96748.25
2023-03-24T20:58:44.693Z,96752.41
2023-03-24T21:01:20.563Z,96757.75
2023-03-24T21:03:51.440Z,96762.56
2023-03-24T21:06:18.617Z,96764.88
2023-03-24T21:08:45.526Z,96766.00
2023-03-24T21:11:12.402Z,96765.81
2023-03-24T21:13:39.504Z,96759.09
2023-03-24T21:16:08.229Z,96763.63
2023-03-24T21:18:35.930Z,96759.47
2023-03-24T21:21:05.302Z,96758.88
2023-03-24T21:23:34.278Z,96770.69
2023-03-24T21:26:02.270Z,96783.19
2023-03-24T21:28:30.834Z,96780.22
2023-03-24T21:30:58.576Z,96783.19
2023-03-24T21:33:25.454Z,96772.78
2023-03-24T21:35:54.602Z,96780.81
2023-03-24T21:38:21.174Z,96775.59
2023-03-24T21:40:48.118Z,96778.69
2023-03-24T21:43:14.817Z,96785.00
2023-03-24T21:45:46.328Z,96782.06
2023-03-24T21:48:14.066Z,96790.78
2023-03-24T21:50:42.668Z,96798.44
2023-03-24T21:53:15.361Z,96812.75
2023-03-24T21:55:52.402Z,96825.28
2023-03-24T21:58:19.321Z,96824.03
2023-03-24T22:00:47.451Z,96833.97
2023-03-24T22:03:14.089Z,96845.66
2023-03-24T22:05:40.720Z,96855.22
2023-03-24T22:08:07.679Z,96852.81
2023-03-24T22:10:34.987Z,96848.13
2023-03-24T22:13:02.366Z,96863.94
2023-03-24T22:15:31.995Z,96861.59
2023-03-24T22:17:59.539Z,96873.84
2023-03-24T22:20:28.163Z,96870.41
2023-03-24T22:22:54.648Z,96877.94
2023-03-24T22:25:21.165Z,96883.72
2023-03-24T22:27:52.695Z,96888.63
2023-03-24T22:30:19.757Z,96892.75
2023-03-24T22:32:46.261Z,96891.69
2023-03-24T22:35:12.761Z,96893.25
2023-03-24T22:37:39.224Z,96893.47
2023-03-24T22:40:06.700Z,96897.94
2023-03-24T22:42:33.241Z,96911.56
2023-03-24T22:44:59.741Z,96909.06
2023-03-24T22:47:27.400Z,96910.59
2023-03-24T22:49:53.942Z,96911.00
2023-03-24T22:52:20.694Z,96922.72
2023-03-24T22:54:47.348Z,96920.59
2023-03-24T22:57:13.816Z,96925.72
2023-03-24T22:59:40.464Z,96925.72
2023-03-24T23:02:10.065Z,96924.34
2023-03-24T23:04:37.209Z,96925.81
2023-03-24T23:07:06.194Z,96927.28
2023-03-24T23:09:32.696Z,96936.41
2023-03-24T23:11:59.199Z,96931.72
2023-03-24T23:14:26.415Z,96929.69
2023-03-24T23:16:54.280Z,96927.63
2023-03-24T23:19:20.911Z,96934.13
2023-03-24T23:21:47.347Z,96927.69
2023-03-24T23:24:13.922Z,96939.16
2023-03-24T23:26:40.360Z,96931.53
2023-03-24T23:29:06.790Z,96931.00
2023-03-24T23:31:33.444Z,96931.00
2023-03-24T23:34:00.204Z,96937.25
2023-03-24T23:36:28.335Z,96932.75
2023-03-24T23:38:55.233Z,96935.59
2023-03-24T23:41:22.315Z,96938.09
2023-03-24T23:43:50.039Z,96940.59
2023-03-24T23:46:17.103Z,96942.31
2023-03-24T23:48:43.605Z,96940.13
2023-03-24T23:51:10.462Z,96940.03
2023-03-24T23:53:37.327Z,96943.19
2023-03-24T23:56:08.891Z,96938.47
2023-03-24T23:58:36.444Z,96934.69
